Terminal Aerodrome Forecast
Issued by NWS

Home | Current Version | Previous Version | Text Only | Print | Product List | Glossary On
Versions: 1 2 3 4 5 6 7 8 9 10 11 12 13
000
FTUS41 KCAR 270524
TAFFVE
TAF
KFVE 270524Z 2706/2806 20004KT P6SM VCSH BKN050
     FM271400 21008KT P6SM VCSH OVC015
     FM271700 21008KT 5SM -SHRA OVC015
     FM272000 23008KT 5SM -SHRA VCTS OVC025CB
     FM280000 26005KT P6SM VCSH OVC030
     FM280300 28004KT P6SM OVC015=

USA.gov is the U.S. government's official web portal to all federal, state and local government web resources and services.